Time;durP1;ratioP1;P1;durP2;ratioP2;P2;SDS_P1;SDS_P2;PMS_P1;PMS_P2;Temp;Humidity;BMP_temperature;BMP_pressure;BME280_temperature;BME280_humidity;BME280_pressure;Samples;Min_cycle;Max_cycle;Signal;HPM_P1;HPM_P2
2021/03/27 00:00:14;;;;;;;13.02;11.48;;;12.80;99.20;12.70;100044.00;;;;332512;29;86631;-91
2021/03/27 00:00:30;;;;;;;14.82;11.08;;;12.70;99.20;12.70;100038.00;;;;338516;28;87340;-91
2021/03/27 00:00:51;;;;;;;13.27;11.80;;;12.80;99.30;12.70;100043.00;;;;337231;28;85623;-92
2021/03/27 00:01:08;;;;;;;12.98;11.60;;;12.70;99.30;12.60;100044.00;;;;339406;28;86925;-91
2021/03/27 00:01:37;;;;;;;13.10;11.70;;;12.70;99.40;12.90;100043.00;;;;337567;28;86384;-91
2021/03/27 00:01:54;;;;;;;14.88;11.90;;;12.70;99.40;12.80;100037.00;;;;337478;28;87727;-92
2021/03/27 00:02:32;;;;;;;15.25;12.57;;;12.70;99.40;12.80;100035.00;;;;339961;28;85976;-91
2021/03/27 00:02:56;;;;;;;13.68;12.07;;;12.70;99.40;12.50;100042.00;;;;338669;28;85768;-91
2021/03/27 00:03:39;;;;;;;13.40;12.07;;;12.70;99.50;12.60;100045.00;;;;337384;28;86144;-91
2021/03/27 00:04:04;;;;;;;12.95;11.65;;;12.70;99.50;12.60;100043.00;;;;337056;28;87012;-92
2021/03/27 00:04:49;;;;;;;13.00;11.70;;;12.70;99.50;12.70;100051.00;;;;336108;28;87737;-91
2021/03/27 00:05:17;;;;;;;14.13;12.73;;;12.70;99.40;12.70;100050.00;;;;338767;28;87753;-90
2021/03/27 00:05:37;;;;;;;15.60;12.25;;;12.70;99.60;12.80;100054.00;;;;341452;28;87482;-91
2021/03/27 00:06:10;;;;;;;13.93;11.55;;;12.60;99.60;12.70;100057.00;;;;340082;28;87961;-91
2021/03/27 00:06:29;;;;;;;13.93;11.68;;;12.70;99.70;12.70;100051.00;;;;337322;28;87371;-92
2021/03/27 00:06:50;;;;;;;13.25;11.18;;;12.70;99.50;12.90;100046.00;;;;341221;28;87180;-90
2021/03/27 00:07:26;;;;;;;12.82;11.45;;;12.70;99.60;12.80;100047.00;;;;339967;28;87624;-91
2021/03/27 00:08:00;;;;;;;12.55;11.18;;;12.70;99.50;12.80;100043.00;;;;339928;28;88086;-91
2021/03/27 00:08:41;;;;;;;12.98;11.68;;;12.80;99.50;12.80;100050.00;;;;339950;28;87118;-91
2021/03/27 00:09:22;;;;;;;16.40;12.95;;;12.70;99.60;12.70;100053.00;;;;340063;28;87752;-92
2021/03/27 00:09:43;;;;;;;15.30;11.70;;;12.70;99.50;12.80;100051.00;;;;339767;28;86252;-92
2021/03/27 00:10:19;;;;;;;14.05;11.38;;;12.70;99.40;12.80;100061.00;;;;341049;28;85487;-91
2021/03/27 00:10:54;;;;;;;13.25;11.95;;;12.70;99.40;12.70;100053.00;;;;340079;28;86162;-91
2021/03/27 00:11:22;;;;;;;13.18;11.80;;;12.70;99.60;12.70;100060.00;;;;340103;28;86981;-91
2021/03/27 00:11:59;;;;;;;14.85;13.00;;;12.70;99.70;12.60;100054.00;;;;341387;28;86236;-91
2021/03/27 00:12:36;;;;;;;15.25;11.85;;;12.70;99.70;12.70;100050.00;;;;338435;28;86855;-91
2021/03/27 00:13:24;;;;;;;13.52;11.55;;;12.60;99.70;12.70;100049.00;;;;340530;28;87516;-91
2021/03/27 00:13:59;;;;;;;14.15;11.70;;;12.60;99.70;12.90;100054.00;;;;338616;28;87991;-92
2021/03/27 00:14:22;;;;;;;14.52;11.75;;;12.70;99.80;12.90;100049.00;;;;337443;28;85011;-91
2021/03/27 00:14:42;;;;;;;12.65;11.32;;;12.70;99.70;12.70;100060.00;;;;340212;28;86437;-92
2021/03/27 00:15:30;;;;;;;13.57;12.18;;;12.70;99.70;12.90;100058.00;;;;338399;28;86487;-91
2021/03/27 00:15:53;;;;;;;13.25;11.75;;;12.70;99.70;12.70;100055.00;;;;339296;28;86949;-91
2021/03/27 00:16:30;;;;;;;15.02;12.57;;;12.70;99.80;12.70;100060.00;;;;338446;28;86302;-92
2021/03/27 00:17:08;;;;;;;13.88;12.43;;;12.70;99.80;12.80;100060.00;;;;339962;28;87267;-91
2021/03/27 00:17:52;;;;;;;13.05;11.73;;;12.60;99.80;12.60;100055.00;;;;340160;28;86281;-91
2021/03/27 00:18:20;;;;;;;12.50;11.25;;;12.70;99.80;12.60;100055.00;;;;336107;28;85528;-92
2021/03/27 00:18:33;;;;;;;12.68;11.45;;;12.60;99.80;12.70;100062.00;;;;338140;28;86617;-91
2021/03/27 00:18:59;;;;;;;12.13;10.93;;;12.60;99.70;12.70;100063.00;;;;337509;28;86742;-91
2021/03/27 00:19:40;;;;;;;13.00;11.38;;;12.60;99.70;12.80;100059.00;;;;338699;28;86112;-91
2021/03/27 00:19:59;;;;;;;13.88;12.48;;;12.60;99.70;12.50;100053.00;;;;340090;28;87793;-91
2021/03/27 00:20:29;;;;;;;13.65;12.25;;;12.60;99.80;12.60;100062.00;;;;339975;28;86628;-91
2021/03/27 00:21:12;;;;;;;12.95;11.73;;;12.60;99.70;12.80;100057.00;;;;338516;28;87019;-91
2021/03/27 00:21:52;;;;;;;14.70;11.65;;;12.60;99.80;12.70;100062.00;;;;339946;28;86495;-91
2021/03/27 00:22:32;;;;;;;15.52;12.27;;;12.60;99.90;12.50;100066.00;;;;337978;28;86729;-91
2021/03/27 00:22:58;;;;;;;13.60;12.23;;;12.60;99.90;12.50;100078.00;;;;338467;28;86579;-91
2021/03/27 00:23:34;;;;;;;13.40;12.00;;;12.50;99.90;12.50;100049.00;;;;338544;28;87129;-91
2021/03/27 00:23:52;;;;;;;14.13;12.63;;;12.50;99.90;12.60;100055.00;;;;339844;28;85470;-91
2021/03/27 00:24:21;;;;;;;14.60;12.80;;;12.50;99.90;12.60;100073.00;;;;336096;28;88145;-91
2021/03/27 00:24:53;;;;;;;13.74;12.38;;;12.50;99.90;12.70;100064.00;;;;337742;28;86696;-92
2021/03/27 00:25:25;;;;;;;14.40;12.70;;;12.50;99.90;12.40;100057.00;;;;340432;28;86393;-90
2021/03/27 00:25:40;;;;;;;15.35;12.82;;;12.50;99.90;12.50;100057.00;;;;341282;28;86095;-91
2021/03/27 00:26:06;;;;;;;15.75;13.20;;;12.50;99.90;12.60;100063.00;;;;341230;28;87092;-91
2021/03/27 00:26:40;;;;;;;14.90;12.82;;;12.50;99.90;12.50;100057.00;;;;340024;28;87826;-91
2021/03/27 00:27:01;;;;;;;14.80;13.40;;;12.50;99.90;12.50;100063.00;;;;338456;28;85685;-91
2021/03/27 00:27:16;;;;;;;14.68;13.18;;;12.40;99.90;12.50;100049.00;;;;341384;28;87235;-91
2021/03/27 00:28:01;;;;;;;15.88;13.48;;;12.40;99.90;12.60;100060.00;;;;342519;28;86356;-91
2021/03/27 00:28:42;;;;;;;15.30;13.70;;;12.40;99.90;12.50;100061.00;;;;342504;28;85323;-91
2021/03/27 00:29:03;;;;;;;17.80;13.48;;;12.50;99.90;12.50;100061.00;;;;338648;28;86591;-91
2021/03/27 00:29:23;;;;;;;14.43;13.00;;;12.40;99.90;12.50;100056.00;;;;337346;28;87210;-91
2021/03/27 00:29:42;;;;;;;14.88;12.63;;;12.40;99.90;12.50;100073.00;;;;336050;28;87702;-90
2021/03/27 00:30:06;;;;;;;15.10;12.48;;;12.40;99.90;12.70;100066.00;;;;338767;28;85994;-91
2021/03/27 00:30:24;;;;;;;13.93;12.32;;;12.40;99.90;12.70;100059.00;;;;338836;28;84536;-91
2021/03/27 00:30:45;;;;;;;13.75;12.45;;;12.40;99.90;12.50;100062.00;;;;340470;28;86448;-91
2021/03/27 00:31:14;;;;;;;13.65;12.15;;;12.40;99.90;12.40;100065.00;;;;339979;28;88131;-91
2021/03/27 00:31:43;;;;;;;13.93;12.50;;;12.40;99.90;12.50;100064.00;;;;341431;28;85849;-91
2021/03/27 00:32:06;;;;;;;14.70;13.13;;;12.40;99.90;12.60;100070.00;;;;340157;28;84245;-89
2021/03/27 00:32:21;;;;;;;14.98;12.75;;;12.40;99.90;12.40;100061.00;;;;342792;28;86285;-91
2021/03/27 00:32:38;;;;;;;14.23;12.60;;;12.40;99.90;12.50;100057.00;;;;337611;28;84200;-91
2021/03/27 00:32:52;;;;;;;13.90;12.50;;;12.40;99.90;12.50;100063.00;;;;342495;28;86046;-90
2021/03/27 00:33:04;;;;;;;14.00;12.50;;;12.40;99.90;12.50;100063.00;;;;340155;28;87943;-91
2021/03/27 00:33:16;;;;;;;13.70;12.18;;;12.40;99.90;12.60;100066.00;;;;340078;28;87674;-92
2021/03/27 00:33:33;;;;;;;13.32;11.98;;;12.40;99.90;12.60;100046.00;;;;338664;28;87675;-90
2021/03/27 00:33:50;;;;;;;14.52;13.00;;;12.40;99.90;12.60;100061.00;;;;338421;28;86200;-90
2021/03/27 00:34:07;;;;;;;14.70;13.15;;;12.40;99.90;12.50;100068.00;;;;338367;28;86930;-91
2021/03/27 00:34:21;;;;;;;14.45;13.00;;;12.40;99.90;12.60;100057.00;;;;338623;28;85395;-91
2021/03/27 00:34:39;;;;;;;14.57;12.98;;;12.40;99.90;12.50;100063.00;;;;342177;28;86667;-91
2021/03/27 00:34:56;;;;;;;15.27;13.18;;;12.40;99.90;12.70;100062.00;;;;340099;28;84753;-92
2021/03/27 00:35:14;;;;;;;14.18;12.55;;;12.30;99.90;12.60;100063.00;;;;340131;28;87732;-91
2021/03/27 00:35:42;;;;;;;13.93;12.30;;;12.30;99.90;12.60;100059.00;;;;341488;28;86531;-91
2021/03/27 00:36:09;;;;;;;15.52;12.45;;;12.40;99.90;12.60;100061.00;;;;341427;28;87560;-91
2021/03/27 00:36:51;;;;;;;15.38;12.65;;;12.30;99.90;12.70;100064.00;;;;341337;28;87137;-91
2021/03/27 00:37:06;;;;;;;15.77;12.85;;;12.40;99.90;12.60;100059.00;;;;338772;28;85515;-91
2021/03/27 00:37:23;;;;;;;14.75;12.52;;;12.40;99.90;12.60;100059.00;;;;338655;28;87494;-91
2021/03/27 00:37:34;;;;;;;13.20;11.90;;;12.40;99.90;12.60;100060.00;;;;340289;28;86368;-91
2021/03/27 00:37:46;;;;;;;13.23;11.93;;;12.40;99.90;12.60;100062.00;;;;340082;28;87351;-91
2021/03/27 00:38:04;;;;;;;13.73;12.18;;;12.40;99.90;12.50;100061.00;;;;342815;28;87838;-92
2021/03/27 00:38:20;;;;;;;14.65;12.88;;;12.40;99.90;12.50;100066.00;;;;342653;28;87863;-90
2021/03/27 00:38:43;;;;;;;14.48;12.70;;;12.40;99.90;12.50;100058.00;;;;344079;28;87728;-91
2021/03/27 00:39:46;;;;;;;18.10;12.75;;;12.40;99.90;12.60;100060.00;;;;340072;28;86160;-91
2021/03/27 00:40:02;;;;;;;14.02;12.57;;;12.30;99.90;12.60;100067.00;;;;338298;28;86709;-91
2021/03/27 00:40:21;;;;;;;15.88;13.10;;;12.40;99.90;12.60;100059.00;;;;338732;28;87058;-91
2021/03/27 00:40:39;;;;;;;14.80;12.55;;;12.40;99.90;12.50;100061.00;;;;342855;28;85242;-90
2021/03/27 00:40:51;;;;;;;14.70;12.15;;;12.40;99.90;12.50;100065.00;;;;341125;28;87435;-91
2021/03/27 00:41:02;;;;;;;16.00;12.73;;;12.40;99.90;12.50;100068.00;;;;340124;28;87814;-91
2021/03/27 00:41:22;;;;;;;16.35;12.65;;;12.40;99.90;12.60;100064.00;;;;342763;28;87425;-92
2021/03/27 00:41:41;;;;;;;15.30;12.35;;;12.40;99.90;12.60;100070.00;;;;340030;28;88111;-91
2021/03/27 00:42:07;;;;;;;14.10;12.57;;;12.40;99.90;12.40;100073.00;;;;338784;28;87234;-91
2021/03/27 00:42:30;;;;;;;14.55;13.05;;;12.40;99.90;12.40;100076.00;;;;340067;28;87782;-91
2021/03/27 00:43:04;;;;;;;14.18;11.93;;;12.40;99.90;12.30;100068.00;;;;342175;28;86878;-91
2021/03/27 00:43:34;;;;;;;12.82;11.60;;;12.40;99.90;12.40;100064.00;;;;339698;28;86950;-91
2021/03/27 00:43:49;;;;;;;13.93;12.43;;;12.40;99.90;12.50;100069.00;;;;339945;28;85672;-91
2021/03/27 00:44:01;;;;;;;15.02;12.70;;;12.40;99.90;12.50;100075.00;;;;338850;28;88088;-91
2021/03/27 00:44:13;;;;;;;14.40;12.07;;;12.40;99.90;12.60;100061.00;;;;340098;28;87639;-90
2021/03/27 00:44:35;;;;;;;14.13;12.30;;;12.40;99.90;12.60;100073.00;;;;343180;28;86809;-91
2021/03/27 00:44:52;;;;;;;17.60;12.10;;;12.40;99.90;12.50;100075.00;;;;340500;28;86242;-90
2021/03/27 00:45:12;;;;;;;18.25;11.90;;;12.40;99.90;12.50;100083.00;;;;342232;28;87703;-91
2021/03/27 00:45:38;;;;;;;15.23;12.82;;;12.40;99.90;12.40;100082.00;;;;343218;28;86541;-91
2021/03/27 00:45:54;;;;;;;15.30;12.90;;;12.40;99.90;12.40;100084.00;;;;343428;28;85904;-91
2021/03/27 00:46:07;;;;;;;16.02;12.43;;;12.30;99.90;12.40;100083.00;;;;341967;28;85814;-91
2021/03/27 00:46:21;;;;;;;13.90;12.48;;;12.30;99.90;12.30;100085.00;;;;340761;28;88048;-91
2021/03/27 00:46:32;;;;;;;14.05;12.65;;;12.30;99.90;12.20;100085.00;;;;339269;28;86120;-90
2021/03/27 00:46:44;;;;;;;14.68;13.05;;;12.30;99.90;12.20;100089.00;;;;340981;28;87916;-92
2021/03/27 00:46:56;;;;;;;15.65;13.25;;;12.30;99.90;12.20;100080.00;;;;339436;28;85501;-90
2021/03/27 00:47:10;;;;;;;14.20;12.52;;;12.30;99.90;12.20;100088.00;;;;342290;28;87776;-91
2021/03/27 00:47:26;;;;;;;13.20;11.93;;;12.20;99.90;12.30;100085.00;;;;339511;28;86804;-92
2021/03/27 00:47:42;;;;;;;13.23;11.93;;;12.20;99.90;12.30;100090.00;;;;342246;28;86884;-91
2021/03/27 00:48:04;;;;;;;13.38;11.90;;;12.30;99.90;12.30;100092.00;;;;342188;28;86319;-93
2021/03/27 00:48:39;;;;;;;13.55;12.25;;;12.20;99.90;12.30;100100.00;;;;342130;28;87806;-90
2021/03/27 00:49:23;;;;;;;14.68;12.35;;;12.30;99.90;12.40;100094.00;;;;341835;28;86330;-92
2021/03/27 00:49:39;;;;;;;15.07;13.50;;;12.30;99.90;12.50;100089.00;;;;339762;28;87781;-91
2021/03/27 00:49:59;;;;;;;13.90;12.50;;;12.30;99.90;12.40;100083.00;;;;339426;28;86269;-91
2021/03/27 00:50:21;;;;;;;14.20;12.07;;;12.30;99.90;12.50;100090.00;;;;341934;28;85859;-91
2021/03/27 00:50:59;;;;;;;15.15;12.73;;;12.30;99.90;12.60;100090.00;;;;342300;28;85415;-91
2021/03/27 00:51:15;;;;;;;13.82;11.52;;;12.30;99.90;12.50;100092.00;;;;343223;28;86320;-91
2021/03/27 00:51:29;;;;;;;13.60;12.10;;;12.30;99.90;12.50;100092.00;;;;343242;28;83857;-90
2021/03/27 00:51:54;;;;;;;13.00;11.63;;;12.40;99.90;12.50;100084.00;;;;341447;28;87626;-91
2021/03/27 00:52:08;;;;;;;13.13;11.75;;;12.40;99.90;12.50;100085.00;;;;341017;28;87126;-91
2021/03/27 00:52:20;;;;;;;14.05;11.88;;;12.40;99.90;12.60;100089.00;;;;341588;28;87488;-91
2021/03/27 00:52:42;;;;;;;16.48;11.93;;;12.40;99.90;12.50;100084.00;;;;342956;28;86264;-90
2021/03/27 00:52:57;;;;;;;14.27;12.23;;;12.40;99.90;12.50;100088.00;;;;341603;28;87743;-91
2021/03/27 00:53:21;;;;;;;12.85;11.55;;;12.40;99.90;12.60;100089.00;;;;341672;28;87016;-90
2021/03/27 00:53:49;;;;;;;13.63;12.23;;;12.40;99.90;12.70;100089.00;;;;342941;28;87275;-90
2021/03/27 00:54:34;;;;;;;14.38;12.48;;;12.40;99.90;12.70;100100.00;;;;341635;28;86853;-91
2021/03/27 00:55:08;;;;;;;15.48;12.82;;;12.40;99.90;12.70;100092.00;;;;339127;28;86935;-90
2021/03/27 00:55:34;;;;;;;14.38;12.88;;;12.50;99.90;12.60;100096.00;;;;340282;28;87533;-91
2021/03/27 00:56:12;;;;;;;16.40;12.57;;;12.50;99.90;12.90;100095.00;;;;340324;28;87536;-91
2021/03/27 00:56:30;;;;;;;13.32;11.65;;;12.50;99.90;12.90;100093.00;;;;343089;28;85650;-91
2021/03/27 00:57:15;;;;;;;13.65;12.18;;;12.50;99.90;12.70;100091.00;;;;342990;28;86800;-91
2021/03/27 00:57:29;;;;;;;13.70;11.77;;;12.60;99.90;12.80;100096.00;;;;342816;28;86655;-90
2021/03/27 00:58:01;;;;;;;13.20;11.55;;;12.60;99.90;12.80;100095.00;;;;342141;28;86713;-90
2021/03/27 00:58:25;;;;;;;13.15;11.80;;;12.60;99.90;12.80;100092.00;;;;340154;28;86620;-91
2021/03/27 00:58:48;;;;;;;13.07;11.77;;;12.70;99.90;12.80;100095.00;;;;343398;28;85834;-90
2021/03/27 00:59:19;;;;;;;15.57;12.15;;;12.70;99.90;12.90;100086.00;;;;341677;28;85911;-91
2021/03/27 01:00:12;;;;;;;12.20;10.90;;;12.60;99.90;13.00;100090.00;;;;342917;28;87784;-91
2021/03/27 01:00:31;;;;;;;15.00;12.32;;;12.70;99.90;12.90;100082.00;;;;340030;28;87804;-91
2021/03/27 01:00:46;;;;;;;15.38;12.68;;;12.70;99.90;12.90;100086.00;;;;338242;28;87169;-91
2021/03/27 01:01:01;;;;;;;15.52;12.82;;;12.70;99.90;13.00;100084.00;;;;338903;28;87387;-91
2021/03/27 01:01:12;;;;;;;14.02;12.52;;;12.70;99.90;12.90;100088.00;;;;337574;28;86303;-90
2021/03/27 01:01:26;;;;;;;14.15;12.75;;;12.70;99.90;13.00;100089.00;;;;340151;28;87216;-91
2021/03/27 01:01:40;;;;;;;13.73;12.32;;;12.70;99.90;12.90;100089.00;;;;338386;28;86470;-91
2021/03/27 01:01:54;;;;;;;14.77;12.35;;;12.70;99.90;12.90;100092.00;;;;337548;28;86162;-91
2021/03/27 01:02:11;;;;;;;14.25;12.05;;;12.70;99.90;12.80;100096.00;;;;336243;28;86935;-92
2021/03/27 01:02:23;;;;;;;13.20;11.32;;;12.80;99.90;12.90;100086.00;;;;337619;28;86259;-91
2021/03/27 01:02:45;;;;;;;13.00;11.50;;;12.80;99.90;12.90;100091.00;;;;337620;28;87896;-91
2021/03/27 01:03:05;;;;;;;13.38;12.00;;;12.80;99.90;13.00;100091.00;;;;338917;28;86205;-90
2021/03/27 01:03:39;;;;;;;15.02;12.45;;;12.70;99.90;12.90;100092.00;;;;337471;28;85440;-91
2021/03/27 01:03:58;;;;;;;13.40;11.93;;;12.70;99.90;13.00;100088.00;;;;339490;28;86381;-92
2021/03/27 01:04:15;;;;;;;13.82;12.43;;;12.80;99.90;12.70;100101.00;;;;337487;28;85933;-91
2021/03/27 01:04:30;;;;;;;13.23;11.88;;;12.80;99.90;12.70;100095.00;;;;340276;28;87471;-91
2021/03/27 01:04:42;;;;;;;13.43;11.77;;;12.80;99.90;12.70;100096.00;;;;337527;28;85893;-91
2021/03/27 01:04:55;;;;;;;13.38;11.93;;;12.70;99.90;12.70;100097.00;;;;336310;28;83879;-90
2021/03/27 01:05:08;;;;;;;13.43;12.02;;;12.80;99.90;12.70;100096.00;;;;336473;28;85337;-91
2021/03/27 01:05:24;;;;;;;13.48;12.07;;;12.80;99.90;12.70;100091.00;;;;337536;28;86534;-91
2021/03/27 01:05:35;;;;;;;18.45;12.18;;;12.70;99.90;12.80;100093.00;;;;337604;28;88153;-91
2021/03/27 01:05:48;;;;;;;19.08;12.45;;;12.80;99.90;12.80;100088.00;;;;337714;28;86159;-91
2021/03/27 01:06:00;;;;;;;13.45;11.90;;;12.70;99.90;13.00;100090.00;;;;336267;28;87931;-90
2021/03/27 01:06:17;;;;;;;13.20;12.00;;;12.70;99.90;12.80;100100.00;;;;337514;28;87358;-90
2021/03/27 01:06:38;;;;;;;14.98;13.50;;;12.80;99.90;12.90;100093.00;;;;337259;28;86657;-91
2021/03/27 01:07:01;;;;;;;14.60;13.07;;;12.80;99.90;12.80;100091.00;;;;337464;28;86165;-91
2021/03/27 01:07:13;;;;;;;14.50;12.85;;;12.80;99.90;12.80;100085.00;;;;336316;28;87193;-91
2021/03/27 01:07:25;;;;;;;14.27;12.77;;;12.80;99.90;12.90;100097.00;;;;338908;28;84891;-91
2021/03/27 01:07:36;;;;;;;14.15;12.75;;;12.80;99.90;12.80;100091.00;;;;339076;28;86514;-91
2021/03/27 01:07:48;;;;;;;14.00;12.65;;;12.70;99.90;12.80;100089.00;;;;338939;28;86519;-90
2021/03/27 01:08:00;;;;;;;13.93;12.55;;;12.70;99.90;12.70;100095.00;;;;337689;28;86081;-91
2021/03/27 01:08:12;;;;;;;13.82;12.48;;;12.70;99.90;12.70;100095.00;;;;337592;28;86134;-90
2021/03/27 01:08:24;;;;;;;14.43;12.93;;;12.70;99.90;12.70;100086.00;;;;339017;28;86290;-91
2021/03/27 01:08:37;;;;;;;14.63;13.07;;;12.80;99.90;12.60;100097.00;;;;336347;28;87426;-91
2021/03/27 01:08:49;;;;;;;16.25;13.60;;;12.70;99.90;12.60;100091.00;;;;337541;28;87693;-91
2021/03/27 01:09:00;;;;;;;15.15;13.20;;;12.70;99.90;12.60;100087.00;;;;337593;28;85900;-91
2021/03/27 01:09:13;;;;;;;14.55;12.95;;;12.70;99.90;12.90;100091.00;;;;337646;28;86774;-91
2021/03/27 01:09:32;;;;;;;14.60;12.43;;;12.70;99.90;12.80;100095.00;;;;337632;28;84484;-92
2021/03/27 01:09:49;;;;;;;13.35;11.95;;;12.70;99.90;12.80;100097.00;;;;338297;28;87152;-91
2021/03/27 01:10:10;;;;;;;14.05;12.52;;;12.70;99.90;12.70;100098.00;;;;338854;28;86406;-91
2021/03/27 01:10:31;;;;;;;14.80;13.25;;;12.80;99.90;12.60;100092.00;;;;338854;28;86888;-90
2021/03/27 01:10:48;;;;;;;14.02;12.25;;;12.70;99.90;12.70;100103.00;;;;337388;28;86085;-91
2021/03/27 01:11:03;;;;;;;15.20;12.73;;;12.70;99.90;12.70;100094.00;;;;337633;28;87829;-91
2021/03/27 01:11:41;;;;;;;15.27;12.80;;;12.70;99.90;12.70;100097.00;;;;336410;28;85080;-91
2021/03/27 01:12:02;;;;;;;13.32;11.93;;;12.70;99.90;12.80;100104.00;;;;338977;28;86749;-91
2021/03/27 01:12:19;;;;;;;12.10;10.90;;;12.70;99.90;12.90;100104.00;;;;336167;28;87450;-91
2021/03/27 01:12:37;;;;;;;12.88;11.57;;;12.70;99.90;12.80;100106.00;;;;337626;28;83784;-91
2021/03/27 01:12:49;;;;;;;13.40;12.00;;;12.70;99.90;12.70;100105.00;;;;339489;28;84976;-91
2021/03/27 01:13:05;;;;;;;14.13;12.63;;;12.70;99.90;12.80;100104.00;;;;340323;28;86650;-91
2021/03/27 01:13:25;;;;;;;13.85;12.45;;;12.70;99.90;12.80;100103.00;;;;337532;28;86653;-90
2021/03/27 01:13:44;;;;;;;13.58;12.10;;;12.70;99.90;12.70;100110.00;;;;337901;28;86902;-91
2021/03/27 01:13:58;;;;;;;14.96;13.12;;;12.70;99.90;12.60;100111.00;;;;338836;28;86430;-91
2021/03/27 01:14:14;;;;;;;14.48;13.05;;;12.70;99.90;12.70;100111.00;;;;336255;28;87613;-90
2021/03/27 01:14:28;;;;;;;16.50;13.23;;;12.70;99.90;12.80;100115.00;;;;337507;28;85459;-91
2021/03/27 01:15:11;;;;;;;16.27;13.10;;;12.70;99.90;12.70;100114.00;;;;335009;29;88334;-90
2021/03/27 01:15:35;;;;;;;14.80;13.05;;;12.70;99.90;12.70;100120.00;;;;337539;28;86814;-91
2021/03/27 01:15:56;;;;;;;13.98;12.55;;;12.70;99.90;12.80;100112.00;;;;337482;28;87437;-91
2021/03/27 01:16:13;;;;;;;14.50;12.77;;;12.70;99.90;12.70;100117.00;;;;337663;28;83379;-91
2021/03/27 01:16:38;;;;;;;15.95;13.48;;;12.70;99.90;12.60;100117.00;;;;338979;28;87192;-91
2021/03/27 01:16:54;;;;;;;14.70;12.85;;;12.60;99.70;12.60;100110.00;;;;337471;28;87359;-91
2021/03/27 01:17:06;;;;;;;14.52;13.02;;;12.70;99.80;12.60;100116.00;;;;337588;28;87983;-91
2021/03/27 01:17:21;;;;;;;14.00;12.65;;;12.60;99.80;12.60;100116.00;;;;338989;28;87385;-91
2021/03/27 01:17:34;;;;;;;14.35;12.95;;;12.60;99.80;12.50;100114.00;;;;337517;28;87558;-90
2021/03/27 01:17:48;;;;;;;15.00;13.55;;;12.60;99.80;12.60;100116.00;;;;340337;28;85757;-90
2021/03/27 01:18:12;;;;;;;14.63;13.13;;;12.50;99.80;12.60;100117.00;;;;340364;28;85529;-90
2021/03/27 01:18:34;;;;;;;14.13;12.63;;;12.50;99.80;12.60;100119.00;;;;340176;28;86745;-91
2021/03/27 01:18:49;;;;;;;13.73;12.32;;;12.50;99.90;12.60;100116.00;;;;337983;28;86742;-91
2021/03/27 01:19:15;;;;;;;14.48;12.98;;;12.50;99.90;12.70;100113.00;;;;341262;28;87182;-91
2021/03/27 01:19:39;;;;;;;14.00;12.57;;;12.50;99.80;12.70;100123.00;;;;338922;28;87447;-91
2021/03/27 01:19:57;;;;;;;13.57;12.27;;;12.60;99.70;12.50;100115.00;;;;338800;28;87915;-92
2021/03/27 01:20:33;;;;;;;13.88;12.48;;;12.50;99.70;12.50;100121.00;;;;339970;28;86979;-91
2021/03/27 01:20:50;;;;;;;14.32;12.75;;;12.50;99.70;12.70;100117.00;;;;334940;29;86017;-91
2021/03/27 01:21:14;;;;;;;14.45;12.95;;;12.50;99.80;12.60;100110.00;;;;338886;28;87388;-91
2021/03/27 01:21:47;;;;;;;15.15;13.63;;;12.50;99.80;12.60;100109.00;;;;338947;28;86304;-91
2021/03/27 01:21:59;;;;;;;14.82;12.52;;;12.60;99.90;12.60;100116.00;;;;340204;28;88174;-91
2021/03/27 01:22:12;;;;;;;15.02;13.52;;;12.50;99.80;12.50;100114.00;;;;337651;28;85959;-90
2021/03/27 01:22:24;;;;;;;15.25;13.75;;;12.50;99.80;12.70;100119.00;;;;336227;28;87613;-91
2021/03/27 01:22:36;;;;;;;14.43;13.00;;;12.50;99.90;12.70;100120.00;;;;339811;28;86328;-90
2021/03/27 01:22:48;;;;;;;13.90;12.38;;;12.50;99.90;12.70;100117.00;;;;341535;28;87850;-90
2021/03/27 01:22:59;;;;;;;14.40;12.45;;;12.50;99.90;12.70;100115.00;;;;340261;28;86280;-90
2021/03/27 01:23:11;;;;;;;14.57;12.60;;;12.50;99.90;12.70;100115.00;;;;339081;28;87208;-90
2021/03/27 01:23:23;;;;;;;14.48;12.98;;;12.50;99.90;12.60;100114.00;;;;338948;28;86142;-90
2021/03/27 01:23:34;;;;;;;14.40;12.88;;;12.50;99.90;12.60;100114.00;;;;338710;28;87020;-91
2021/03/27 01:23:46;;;;;;;13.68;12.27;;;12.50;99.90;12.50;100115.00;;;;340238;28;86815;-91
2021/03/27 01:24:00;;;;;;;13.40;11.98;;;12.50;99.90;12.70;100113.00;;;;341230;28;86984;-90
2021/03/27 01:24:14;;;;;;;16.27;12.73;;;12.50;99.90;12.60;100107.00;;;;337501;28;87081;-90
2021/03/27 01:24:28;;;;;;;16.40;13.13;;;12.50;99.90;12.60;100118.00;;;;341654;28;87460;-91
2021/03/27 01:24:39;;;;;;;14.52;12.68;;;12.50;99.90;12.70;100109.00;;;;339346;28;87564;-90
2021/03/27 01:24:57;;;;;;;14.05;12.20;;;12.50;99.90;12.60;100109.00;;;;340259;28;87607;-91
2021/03/27 01:25:09;;;;;;;15.02;12.48;;;12.50;99.90;12.50;100113.00;;;;338991;28;87104;-91
2021/03/27 01:25:27;;;;;;;16.35;12.88;;;12.40;99.90;12.60;100106.00;;;;339026;28;86006;-90
2021/03/27 01:25:39;;;;;;;15.18;13.57;;;12.40;99.90;12.70;100111.00;;;;338726;28;87546;-91
2021/03/27 01:25:50;;;;;;;14.95;13.52;;;12.40;99.90;12.60;100110.00;;;;338953;28;87856;-91
2021/03/27 01:26:09;;;;;;;15.05;13.45;;;12.40;99.90;12.60;100116.00;;;;336267;28;87530;-91
2021/03/27 01:26:23;;;;;;;14.98;13.23;;;12.50;99.90;12.60;100107.00;;;;337555;28;88203;-91
2021/03/27 01:26:54;;;;;;;14.25;12.82;;;12.50;99.90;12.40;100122.00;;;;338956;28;86228;-90
2021/03/27 01:27:15;;;;;;;14.90;13.40;;;12.50;99.90;12.30;100121.00;;;;337388;28;87831;-91
2021/03/27 01:27:39;;;;;;;15.02;13.25;;;12.40;99.90;12.30;100120.00;;;;340146;28;86066;-90
2021/03/27 01:27:56;;;;;;;14.68;13.27;;;12.40;99.90;12.30;100122.00;;;;337490;28;86802;-90
2021/03/27 01:28:40;;;;;;;14.07;12.75;;;12.30;99.90;12.30;100130.00;;;;338792;28;87948;-91
2021/03/27 01:29:10;;;;;;;14.02;12.65;;;12.30;99.90;12.40;100129.00;;;;337552;28;87611;-90
2021/03/27 01:29:39;;;;;;;14.40;12.63;;;12.30;99.90;12.40;100128.00;;;;335002;29;86377;-91
2021/03/27 01:30:00;;;;;;;16.15;14.00;;;12.30;99.90;12.30;100126.00;;;;337632;28;87605;-91
2021/03/27 01:30:38;;;;;;;15.45;13.70;;;12.30;99.90;12.40;100136.00;;;;338612;28;85427;-90
2021/03/27 01:31:15;;;;;;;14.98;13.48;;;12.30;99.90;12.40;100131.00;;;;340141;28;87204;-90
2021/03/27 01:31:44;;;;;;;14.90;13.40;;;12.30;99.90;12.50;100129.00;;;;337490;28;86024;-90
2021/03/27 01:32:23;;;;;;;14.30;12.80;;;12.30;99.90;12.50;100137.00;;;;339033;28;87326;-90
2021/03/27 01:32:53;;;;;;;14.45;12.95;;;12.30;99.90;12.50;100132.00;;;;337244;28;87183;-91
2021/03/27 01:33:15;;;;;;;15.70;12.50;;;12.30;99.90;12.60;100134.00;;;;337571;28;87087;-90
2021/03/27 01:33:31;;;;;;;14.27;12.77;;;12.30;99.90;12.50;100135.00;;;;337531;28;86775;-91
2021/03/27 01:34:17;;;;;;;15.30;13.75;;;12.30;99.90;12.50;100134.00;;;;338886;28;87830;-90
2021/03/27 01:34:34;;;;;;;15.70;14.10;;;12.30;99.90;12.50;100138.00;;;;340282;28;86910;-90
2021/03/27 01:35:09;;;;;;;16.00;13.98;;;12.30;99.90;12.40;100129.00;;;;337559;28;86820;-91
2021/03/27 01:35:43;;;;;;;16.95;13.52;;;12.40;99.90;12.50;100134.00;;;;338949;28;86236;-90
2021/03/27 01:36:16;;;;;;;15.52;13.95;;;12.40;99.90;12.40;100140.00;;;;338870;28;87465;-91
2021/03/27 01:36:42;;;;;;;16.13;13.93;;;12.30;99.90;12.40;100151.00;;;;340306;28;85682;-90
2021/03/27 01:37:27;;;;;;;15.00;13.27;;;12.30;99.90;12.40;100134.00;;;;336041;28;86610;-90
2021/03/27 01:37:48;;;;;;;14.35;12.93;;;12.30;99.90;12.30;100145.00;;;;337032;28;86166;-90